sensor_id;sensor_type;location;lat;lon;timestamp;P1;durP1;ratioP1;P2;durP2;ratioP2
30185;SDS011;31152;49.190;8.122;2023-12-29T00:01:38;9.77;;;5.40;;
30185;SDS011;31152;49.190;8.122;2023-12-29T00:04:04;10.32;;;5.70;;
30185;SDS011;31152;49.190;8.122;2023-12-29T00:06:37;10.13;;;6.30;;
30185;SDS011;31152;49.190;8.122;2023-12-29T00:09:22;13.50;;;6.75;;
30185;SDS011;31152;49.190;8.122;2023-12-29T00:11:54;9.88;;;5.60;;
30185;SDS011;31152;49.190;8.122;2023-12-29T00:14:21;8.48;;;5.55;;
30185;SDS011;31152;49.190;8.122;2023-12-29T00:16:51;9.70;;;6.18;;
30185;SDS011;31152;49.190;8.122;2023-12-29T00:19:17;10.10;;;6.38;;
30185;SDS011;31152;49.190;8.122;2023-12-29T00:21:44;13.07;;;7.13;;
30185;SDS011;31152;49.190;8.122;2023-12-29T00:24:14;11.70;;;6.82;;
30185;SDS011;31152;49.190;8.122;2023-12-29T00:26:43;9.07;;;6.70;;
30185;SDS011;31152;49.190;8.122;2023-12-29T00:29:10;10.80;;;6.53;;
30185;SDS011;31152;49.190;8.122;2023-12-29T00:31:37;9.93;;;6.30;;
30185;SDS011;31152;49.190;8.122;2023-12-29T00:34:03;14.45;;;6.90;;
30185;SDS011;31152;49.190;8.122;2023-12-29T00:36:32;11.27;;;7.40;;
30185;SDS011;31152;49.190;8.122;2023-12-29T00:39:02;10.88;;;7.25;;
30185;SDS011;31152;49.190;8.122;2023-12-29T00:41:28;12.50;;;7.32;;
30185;SDS011;31152;49.190;8.122;2023-12-29T00:43:55;12.25;;;7.70;;
30185;SDS011;31152;49.190;8.122;2023-12-29T00:46:24;14.93;;;7.72;;
30185;SDS011;31152;49.190;8.122;2023-12-29T00:48:51;12.98;;;7.18;;
30185;SDS011;31152;49.190;8.122;2023-12-29T00:51:18;9.55;;;6.60;;
30185;SDS011;31152;49.190;8.122;2023-12-29T00:53:45;13.13;;;7.50;;
30185;SDS011;31152;49.190;8.122;2023-12-29T00:56:14;12.35;;;6.97;;
30185;SDS011;31152;49.190;8.122;2023-12-29T00:58:43;10.82;;;6.85;;
30185;SDS011;31152;49.190;8.122;2023-12-29T01:01:12;13.18;;;6.90;;
30185;SDS011;31152;49.190;8.122;2023-12-29T01:03:39;11.77;;;6.78;;
30185;SDS011;31152;49.190;8.122;2023-12-29T01:06:06;12.50;;;7.15;;
30185;SDS011;31152;49.190;8.122;2023-12-29T01:08:33;12.27;;;7.03;;
30185;SDS011;31152;49.190;8.122;2023-12-29T01:11:00;11.60;;;7.72;;
30185;SDS011;31152;49.190;8.122;2023-12-29T01:13:26;11.30;;;7.28;;
30185;SDS011;31152;49.190;8.122;2023-12-29T01:15:53;14.63;;;7.90;;
30185;SDS011;31152;49.190;8.122;2023-12-29T01:18:20;13.35;;;8.35;;
30185;SDS011;31152;49.190;8.122;2023-12-29T01:20:47;13.80;;;7.80;;
30185;SDS011;31152;49.190;8.122;2023-12-29T01:23:16;14.50;;;7.43;;
30185;SDS011;31152;49.190;8.122;2023-12-29T01:25:44;10.73;;;7.13;;
30185;SDS011;31152;49.190;8.122;2023-12-29T01:28:11;14.98;;;7.50;;
30185;SDS011;31152;49.190;8.122;2023-12-29T01:30:38;11.80;;;7.43;;
30185;SDS011;31152;49.190;8.122;2023-12-29T01:33:05;12.35;;;7.40;;
30185;SDS011;31152;49.190;8.122;2023-12-29T01:35:34;10.68;;;7.03;;
30185;SDS011;31152;49.190;8.122;2023-12-29T01:38:02;14.95;;;6.97;;
30185;SDS011;31152;49.190;8.122;2023-12-29T01:40:29;12.82;;;6.72;;
30185;SDS011;31152;49.190;8.122;2023-12-29T01:42:58;11.18;;;6.40;;
30185;SDS011;31152;49.190;8.122;2023-12-29T01:45:24;12.65;;;6.45;;
30185;SDS011;31152;49.190;8.122;2023-12-29T01:47:52;11.38;;;6.63;;
30185;SDS011;31152;49.190;8.122;2023-12-29T01:50:20;13.13;;;6.55;;
30185;SDS011;31152;49.190;8.122;2023-12-29T01:52:53;9.90;;;6.57;;
30185;SDS011;31152;49.190;8.122;2023-12-29T01:55:23;11.37;;;6.23;;
30185;SDS011;31152;49.190;8.122;2023-12-29T01:57:52;10.38;;;6.28;;
30185;SDS011;31152;49.190;8.122;2023-12-29T02:00:20;9.40;;;5.55;;
30185;SDS011;31152;49.190;8.122;2023-12-29T02:02:47;10.48;;;6.18;;
30185;SDS011;31152;49.190;8.122;2023-12-29T02:05:15;9.27;;;5.85;;
30185;SDS011;31152;49.190;8.122;2023-12-29T02:07:43;10.48;;;6.00;;
30185;SDS011;31152;49.190;8.122;2023-12-29T02:10:13;8.93;;;5.40;;
30185;SDS011;31152;49.190;8.122;2023-12-29T02:12:44;11.13;;;5.40;;
30185;SDS011;31152;49.190;8.122;2023-12-29T02:15:14;8.30;;;5.38;;
30185;SDS011;31152;49.190;8.122;2023-12-29T02:17:45;7.45;;;4.65;;
30185;SDS011;31152;49.190;8.122;2023-12-29T02:20:18;6.45;;;4.40;;
30185;SDS011;31152;49.190;8.122;2023-12-29T02:22:47;8.10;;;5.45;;
30185;SDS011;31152;49.190;8.122;2023-12-29T02:25:14;10.25;;;5.30;;
30185;SDS011;31152;49.190;8.122;2023-12-29T02:27:58;12.18;;;5.78;;
30185;SDS011;31152;49.190;8.122;2023-12-29T02:32:59;12.00;;;5.93;;
30185;SDS011;31152;49.190;8.122;2023-12-29T02:35:28;7.88;;;5.35;;
30185;SDS011;31152;49.190;8.122;2023-12-29T02:37:59;8.93;;;6.00;;
30185;SDS011;31152;49.190;8.122;2023-12-29T02:40:26;14.93;;;5.97;;
30185;SDS011;31152;49.190;8.122;2023-12-29T02:42:53;10.05;;;5.88;;
30185;SDS011;31152;49.190;8.122;2023-12-29T02:45:20;13.25;;;5.95;;
30185;SDS011;31152;49.190;8.122;2023-12-29T02:47:47;12.18;;;6.53;;
30185;SDS011;31152;49.190;8.122;2023-12-29T02:50:15;10.43;;;5.80;;
30185;SDS011;31152;49.190;8.122;2023-12-29T02:52:46;9.00;;;5.78;;
30185;SDS011;31152;49.190;8.122;2023-12-29T02:55:15;10.50;;;5.93;;
30185;SDS011;31152;49.190;8.122;2023-12-29T02:57:42;10.77;;;6.10;;
30185;SDS011;31152;49.190;8.122;2023-12-29T03:00:09;8.60;;;5.60;;
30185;SDS011;31152;49.190;8.122;2023-12-29T03:02:36;12.73;;;6.63;;
30185;SDS011;31152;49.190;8.122;2023-12-29T03:05:05;11.95;;;5.78;;
30185;SDS011;31152;49.190;8.122;2023-12-29T03:07:32;10.82;;;6.03;;
30185;SDS011;31152;49.190;8.122;2023-12-29T03:10:02;10.15;;;6.07;;
30185;SDS011;31152;49.190;8.122;2023-12-29T03:12:31;8.52;;;5.60;;
30185;SDS011;31152;49.190;8.122;2023-12-29T03:15:01;8.13;;;5.20;;
30185;SDS011;31152;49.190;8.122;2023-12-29T03:17:27;8.90;;;5.45;;
30185;SDS011;31152;49.190;8.122;2023-12-29T03:19:54;9.48;;;5.00;;
30185;SDS011;31152;49.190;8.122;2023-12-29T03:22:21;10.60;;;5.93;;
30185;SDS011;31152;49.190;8.122;2023-12-29T03:24:48;9.13;;;5.60;;
30185;SDS011;31152;49.190;8.122;2023-12-29T03:27:15;10.18;;;5.13;;
30185;SDS011;31152;49.190;8.122;2023-12-29T03:29:42;9.00;;;5.22;;
30185;SDS011;31152;49.190;8.122;2023-12-29T03:32:09;14.55;;;5.72;;
30185;SDS011;31152;49.190;8.122;2023-12-29T03:34:36;6.43;;;4.97;;
30185;SDS011;31152;49.190;8.122;2023-12-29T03:37:03;8.43;;;4.95;;
30185;SDS011;31152;49.190;8.122;2023-12-29T03:39:30;9.13;;;5.25;;
30185;SDS011;31152;49.190;8.122;2023-12-29T03:41:56;8.20;;;5.00;;
30185;SDS011;31152;49.190;8.122;2023-12-29T03:44:26;8.75;;;4.70;;
30185;SDS011;31152;49.190;8.122;2023-12-29T03:46:52;8.23;;;4.93;;
30185;SDS011;31152;49.190;8.122;2023-12-29T03:49:21;7.00;;;4.55;;
30185;SDS011;31152;49.190;8.122;2023-12-29T03:51:51;6.75;;;4.70;;
30185;SDS011;31152;49.190;8.122;2023-12-29T03:54:18;8.70;;;5.20;;
30185;SDS011;31152;49.190;8.122;2023-12-29T03:56:46;9.43;;;4.90;;
30185;SDS011;31152;49.190;8.122;2023-12-29T03:59:13;12.30;;;5.78;;
30185;SDS011;31152;49.190;8.122;2023-12-29T04:01:39;7.53;;;4.70;;
30185;SDS011;31152;49.190;8.122;2023-12-29T04:04:06;6.40;;;4.28;;
30185;SDS011;31152;49.190;8.122;2023-12-29T04:06:33;7.72;;;4.65;;
30185;SDS011;31152;49.190;8.122;2023-12-29T04:09:00;7.70;;;4.65;;
30185;SDS011;31152;49.190;8.122;2023-12-29T04:11:26;7.00;;;4.45;;
30185;SDS011;31152;49.190;8.122;2023-12-29T04:13:53;7.32;;;4.63;;
30185;SDS011;31152;49.190;8.122;2023-12-29T04:16:20;8.77;;;3.97;;
30185;SDS011;31152;49.190;8.122;2023-12-29T04:18:47;9.05;;;4.53;;
30185;SDS011;31152;49.190;8.122;2023-12-29T04:21:16;7.97;;;4.38;;
30185;SDS011;31152;49.190;8.122;2023-12-29T04:23:43;6.90;;;4.38;;
30185;SDS011;31152;49.190;8.122;2023-12-29T04:26:10;7.70;;;3.67;;
30185;SDS011;31152;49.190;8.122;2023-12-29T04:28:37;8.45;;;3.90;;
30185;SDS011;31152;49.190;8.122;2023-12-29T04:31:06;6.90;;;4.22;;
30185;SDS011;31152;49.190;8.122;2023-12-29T04:33:33;4.85;;;3.70;;
30185;SDS011;31152;49.190;8.122;2023-12-29T04:36:00;5.53;;;3.72;;
30185;SDS011;31152;49.190;8.122;2023-12-29T04:38:26;5.75;;;3.58;;
30185;SDS011;31152;49.190;8.122;2023-12-29T04:40:53;6.03;;;3.78;;
30185;SDS011;31152;49.190;8.122;2023-12-29T04:43:22;6.07;;;3.67;;
30185;SDS011;31152;49.190;8.122;2023-12-29T04:45:49;6.25;;;4.40;;
30185;SDS011;31152;49.190;8.122;2023-12-29T04:48:18;4.75;;;3.58;;
30185;SDS011;31152;49.190;8.122;2023-12-29T04:50:45;5.38;;;3.75;;
30185;SDS011;31152;49.190;8.122;2023-12-29T04:53:11;7.28;;;4.13;;
30185;SDS011;31152;49.190;8.122;2023-12-29T04:55:38;4.95;;;3.50;;
30185;SDS011;31152;49.190;8.122;2023-12-29T04:58:07;5.75;;;3.53;;
30185;SDS011;31152;49.190;8.122;2023-12-29T05:00:36;6.22;;;3.67;;
30185;SDS011;31152;49.190;8.122;2023-12-29T05:03:05;4.60;;;3.50;;
30185;SDS011;31152;49.190;8.122;2023-12-29T05:05:32;4.90;;;3.53;;
30185;SDS011;31152;49.190;8.122;2023-12-29T05:08:01;6.13;;;3.90;;
30185;SDS011;31152;49.190;8.122;2023-12-29T05:10:29;5.50;;;3.17;;
30185;SDS011;31152;49.190;8.122;2023-12-29T05:12:56;4.70;;;3.65;;
30185;SDS011;31152;49.190;8.122;2023-12-29T05:15:22;8.40;;;3.55;;
30185;SDS011;31152;49.190;8.122;2023-12-29T05:17:51;6.90;;;3.20;;
30185;SDS011;31152;49.190;8.122;2023-12-29T05:20:19;4.80;;;3.70;;
30185;SDS011;31152;49.190;8.122;2023-12-29T05:22:46;4.95;;;3.40;;
30185;SDS011;31152;49.190;8.122;2023-12-29T05:25:12;3.55;;;3.10;;
30185;SDS011;31152;49.190;8.122;2023-12-29T05:27:39;4.97;;;3.30;;
30185;SDS011;31152;49.190;8.122;2023-12-29T05:30:06;5.40;;;3.38;;
30185;SDS011;31152;49.190;8.122;2023-12-29T05:32:33;6.13;;;3.30;;
30185;SDS011;31152;49.190;8.122;2023-12-29T05:35:00;5.75;;;3.25;;
30185;SDS011;31152;49.190;8.122;2023-12-29T05:37:27;4.70;;;2.90;;
30185;SDS011;31152;49.190;8.122;2023-12-29T05:39:56;4.30;;;3.10;;
30185;SDS011;31152;49.190;8.122;2023-12-29T05:42:23;3.80;;;3.08;;
30185;SDS011;31152;49.190;8.122;2023-12-29T05:44:49;5.00;;;3.20;;
30185;SDS011;31152;49.190;8.122;2023-12-29T05:47:17;4.93;;;2.72;;
30185;SDS011;31152;49.190;8.122;2023-12-29T05:49:44;5.22;;;2.42;;
30185;SDS011;31152;49.190;8.122;2023-12-29T05:52:11;4.20;;;2.67;;
30185;SDS011;31152;49.190;8.122;2023-12-29T05:54:38;4.35;;;2.53;;
30185;SDS011;31152;49.190;8.122;2023-12-29T05:57:05;8.35;;;3.15;;
30185;SDS011;31152;49.190;8.122;2023-12-29T05:59:32;4.90;;;2.92;;
30185;SDS011;31152;49.190;8.122;2023-12-29T06:01:58;4.55;;;2.70;;
30185;SDS011;31152;49.190;8.122;2023-12-29T06:04:25;4.18;;;2.65;;
30185;SDS011;31152;49.190;8.122;2023-12-29T06:06:52;4.97;;;2.65;;
30185;SDS011;31152;49.190;8.122;2023-12-29T06:09:19;5.07;;;2.97;;
30185;SDS011;31152;49.190;8.122;2023-12-29T06:11:49;6.13;;;3.42;;
30185;SDS011;31152;49.190;8.122;2023-12-29T06:14:16;3.38;;;2.08;;
30185;SDS011;31152;49.190;8.122;2023-12-29T06:16:43;3.38;;;2.10;;
30185;SDS011;31152;49.190;8.122;2023-12-29T06:19:09;5.90;;;2.28;;
30185;SDS011;31152;49.190;8.122;2023-12-29T06:21:42;5.70;;;2.20;;
30185;SDS011;31152;49.190;8.122;2023-12-29T06:24:12;3.30;;;2.20;;
30185;SDS011;31152;49.190;8.122;2023-12-29T06:26:39;3.72;;;2.42;;
30185;SDS011;31152;49.190;8.122;2023-12-29T06:29:11;3.38;;;1.88;;
30185;SDS011;31152;49.190;8.122;2023-12-29T06:31:41;2.65;;;1.88;;
30185;SDS011;31152;49.190;8.122;2023-12-29T06:34:11;3.60;;;1.80;;
30185;SDS011;31152;49.190;8.122;2023-12-29T06:36:41;2.40;;;1.77;;
30185;SDS011;31152;49.190;8.122;2023-12-29T06:39:08;3.17;;;2.30;;
30185;SDS011;31152;49.190;8.122;2023-12-29T06:41:34;3.33;;;2.08;;
30185;SDS011;31152;49.190;8.122;2023-12-29T06:44:04;3.47;;;2.28;;
30185;SDS011;31152;49.190;8.122;2023-12-29T06:46:33;3.00;;;2.47;;
30185;SDS011;31152;49.190;8.122;2023-12-29T06:49:01;4.05;;;2.45;;
30185;SDS011;31152;49.190;8.122;2023-12-29T06:51:29;4.07;;;2.45;;
30185;SDS011;31152;49.190;8.122;2023-12-29T06:53:56;3.63;;;2.80;;
30185;SDS011;31152;49.190;8.122;2023-12-29T06:56:23;7.40;;;2.88;;
30185;SDS011;31152;49.190;8.122;2023-12-29T06:58:52;7.05;;;2.50;;
30185;SDS011;31152;49.190;8.122;2023-12-29T07:01:19;4.15;;;2.60;;
30185;SDS011;31152;49.190;8.122;2023-12-29T07:03:45;8.25;;;3.17;;
30185;SDS011;31152;49.190;8.122;2023-12-29T07:06:15;5.72;;;2.35;;
30185;SDS011;31152;49.190;8.122;2023-12-29T07:08:44;4.10;;;2.42;;
30185;SDS011;31152;49.190;8.122;2023-12-29T07:11:13;4.25;;;3.03;;
30185;SDS011;31152;49.190;8.122;2023-12-29T07:13:39;5.90;;;2.90;;
30185;SDS011;31152;49.190;8.122;2023-12-29T07:16:06;3.53;;;2.40;;
30185;SDS011;31152;49.190;8.122;2023-12-29T07:18:35;4.88;;;2.45;;
30185;SDS011;31152;49.190;8.122;2023-12-29T07:21:02;3.00;;;2.15;;
30185;SDS011;31152;49.190;8.122;2023-12-29T07:23:29;4.95;;;2.25;;
30185;SDS011;31152;49.190;8.122;2023-12-29T07:25:56;3.17;;;1.70;;
30185;SDS011;31152;49.190;8.122;2023-12-29T07:28:22;3.65;;;2.00;;
30185;SDS011;31152;49.190;8.122;2023-12-29T07:30:55;4.05;;;2.50;;
30185;SDS011;31152;49.190;8.122;2023-12-29T07:33:22;3.83;;;1.67;;
30185;SDS011;31152;49.190;8.122;2023-12-29T07:35:52;3.80;;;2.30;;
30185;SDS011;31152;49.190;8.122;2023-12-29T07:38:19;3.78;;;1.85;;
30185;SDS011;31152;49.190;8.122;2023-12-29T07:40:48;3.08;;;1.70;;
30185;SDS011;31152;49.190;8.122;2023-12-29T07:43:15;5.47;;;1.95;;
30185;SDS011;31152;49.190;8.122;2023-12-29T07:45:42;3.70;;;1.77;;
30185;SDS011;31152;49.190;8.122;2023-12-29T07:48:11;2.42;;;1.50;;
30185;SDS011;31152;49.190;8.122;2023-12-29T07:50:38;2.03;;;1.23;;
30185;SDS011;31152;49.190;8.122;2023-12-29T07:53:09;3.10;;;1.60;;
30185;SDS011;31152;49.190;8.122;2023-12-29T07:55:39;5.93;;;1.63;;
30185;SDS011;31152;49.190;8.122;2023-12-29T07:58:06;2.08;;;1.30;;
30185;SDS011;31152;49.190;8.122;2023-12-29T08:00:36;2.20;;;1.38;;
30185;SDS011;31152;49.190;8.122;2023-12-29T08:03:04;2.28;;;1.65;;
30185;SDS011;31152;49.190;8.122;2023-12-29T08:05:32;3.63;;;1.85;;
30185;SDS011;31152;49.190;8.122;2023-12-29T08:08:02;2.33;;;1.50;;
30185;SDS011;31152;49.190;8.122;2023-12-29T08:10:30;2.90;;;1.60;;
30185;SDS011;31152;49.190;8.122;2023-12-29T08:12:58;2.53;;;1.63;;
30185;SDS011;31152;49.190;8.122;2023-12-29T08:15:24;2.75;;;1.88;;
30185;SDS011;31152;49.190;8.122;2023-12-29T08:17:55;3.03;;;1.48;;
30185;SDS011;31152;49.190;8.122;2023-12-29T08:20:22;2.92;;;1.67;;
30185;SDS011;31152;49.190;8.122;2023-12-29T08:22:50;2.55;;;1.80;;
30185;SDS011;31152;49.190;8.122;2023-12-29T08:25:17;3.38;;;1.80;;
30185;SDS011;31152;49.190;8.122;2023-12-29T08:27:46;3.15;;;1.77;;
30185;SDS011;31152;49.190;8.122;2023-12-29T08:30:13;4.03;;;2.05;;
30185;SDS011;31152;49.190;8.122;2023-12-29T08:32:42;2.67;;;1.55;;
30185;SDS011;31152;49.190;8.122;2023-12-29T08:35:09;4.07;;;1.40;;
30185;SDS011;31152;49.190;8.122;2023-12-29T08:37:36;2.20;;;1.70;;
30185;SDS011;31152;49.190;8.122;2023-12-29T08:40:05;1.92;;;1.25;;
30185;SDS011;31152;49.190;8.122;2023-12-29T08:42:34;1.70;;;1.17;;
30185;SDS011;31152;49.190;8.122;2023-12-29T08:45:01;3.80;;;1.20;;
30185;SDS011;31152;49.190;8.122;2023-12-29T08:47:31;2.35;;;1.38;;
30185;SDS011;31152;49.190;8.122;2023-12-29T08:49:58;2.35;;;1.27;;
30185;SDS011;31152;49.190;8.122;2023-12-29T08:52:27;2.40;;;1.00;;
30185;SDS011;31152;49.190;8.122;2023-12-29T08:54:54;2.50;;;0.70;;
30185;SDS011;31152;49.190;8.122;2023-12-29T08:57:21;2.15;;;0.88;;
30185;SDS011;31152;49.190;8.122;2023-12-29T08:59:48;1.42;;;0.70;;
30185;SDS011;31152;49.190;8.122;2023-12-29T09:02:17;1.00;;;0.80;;
30185;SDS011;31152;49.190;8.122;2023-12-29T09:04:44;2.67;;;0.85;;
30185;SDS011;31152;49.190;8.122;2023-12-29T09:07:10;5.15;;;1.25;;
30185;SDS011;31152;49.190;8.122;2023-12-29T09:09:40;3.42;;;0.80;;
30185;SDS011;31152;49.190;8.122;2023-12-29T09:12:07;1.92;;;1.23;;
30185;SDS011;31152;49.190;8.122;2023-12-29T09:14:33;1.95;;;0.90;;
30185;SDS011;31152;49.190;8.122;2023-12-29T09:17:00;3.63;;;1.08;;
30185;SDS011;31152;49.190;8.122;2023-12-29T09:19:27;1.40;;;1.00;;
30185;SDS011;31152;49.190;8.122;2023-12-29T09:22:05;1.95;;;0.75;;
30185;SDS011;31152;49.190;8.122;2023-12-29T09:24:32;1.70;;;0.90;;
30185;SDS011;31152;49.190;8.122;2023-12-29T09:26:59;1.63;;;0.82;;
30185;SDS011;31152;49.190;8.122;2023-12-29T09:29:25;1.73;;;0.98;;
30185;SDS011;31152;49.190;8.122;2023-12-29T09:31:52;3.50;;;0.95;;
30185;SDS011;31152;49.190;8.122;2023-12-29T09:34:19;2.55;;;1.10;;
30185;SDS011;31152;49.190;8.122;2023-12-29T09:36:46;1.85;;;0.80;;
30185;SDS011;31152;49.190;8.122;2023-12-29T09:39:15;2.20;;;0.95;;
30185;SDS011;31152;49.190;8.122;2023-12-29T09:41:45;2.42;;;0.90;;
30185;SDS011;31152;49.190;8.122;2023-12-29T09:44:16;1.35;;;0.90;;
30185;SDS011;31152;49.190;8.122;2023-12-29T09:46:53;2.60;;;0.90;;
30185;SDS011;31152;49.190;8.122;2023-12-29T09:49:20;2.25;;;0.88;;
30185;SDS011;31152;49.190;8.122;2023-12-29T09:51:50;3.80;;;1.05;;
30185;SDS011;31152;49.190;8.122;2023-12-29T09:54:18;1.83;;;1.08;;
30185;SDS011;31152;49.190;8.122;2023-12-29T09:56:47;3.80;;;1.20;;
30185;SDS011;31152;49.190;8.122;2023-12-29T09:59:16;1.73;;;0.90;;
30185;SDS011;31152;49.190;8.122;2023-12-29T10:01:44;2.15;;;1.13;;
30185;SDS011;31152;49.190;8.122;2023-12-29T10:04:15;1.58;;;1.00;;
30185;SDS011;31152;49.190;8.122;2023-12-29T10:06:43;2.60;;;1.23;;
30185;SDS011;31152;49.190;8.122;2023-12-29T10:11:45;1.77;;;0.90;;
30185;SDS011;31152;49.190;8.122;2023-12-29T10:14:21;3.60;;;0.80;;
30185;SDS011;31152;49.190;8.122;2023-12-29T10:16:57;1.90;;;0.88;;
30185;SDS011;31152;49.190;8.122;2023-12-29T10:19:37;3.30;;;0.95;;
30185;SDS011;31152;49.190;8.122;2023-12-29T10:27:13;1.40;;;0.70;;
30185;SDS011;31152;49.190;8.122;2023-12-29T10:29:40;0.80;;;0.80;;
30185;SDS011;31152;49.190;8.122;2023-12-29T10:32:07;2.28;;;0.98;;
30185;SDS011;31152;49.190;8.122;2023-12-29T10:34:36;1.40;;;0.70;;
30185;SDS011;31152;49.190;8.122;2023-12-29T10:37:03;4.25;;;0.80;;
30185;SDS011;31152;49.190;8.122;2023-12-29T10:39:55;4.15;;;0.85;;
30185;SDS011;31152;49.190;8.122;2023-12-29T10:42:23;1.77;;;0.80;;
30185;SDS011;31152;49.190;8.122;2023-12-29T10:44:49;3.03;;;0.70;;
30185;SDS011;31152;49.190;8.122;2023-12-29T10:47:37;0.90;;;0.55;;
30185;SDS011;31152;49.190;8.122;2023-12-29T10:50:09;1.20;;;0.73;;
30185;SDS011;31152;49.190;8.122;2023-12-29T10:52:36;1.55;;;0.98;;
30185;SDS011;31152;49.190;8.122;2023-12-29T10:55:08;0.93;;;0.60;;
30185;SDS011;31152;49.190;8.122;2023-12-29T10:57:38;0.80;;;0.70;;
30185;SDS011;31152;49.190;8.122;2023-12-29T11:00:06;2.20;;;0.90;;
30185;SDS011;31152;49.190;8.122;2023-12-29T11:02:39;2.20;;;0.70;;
30185;SDS011;31152;49.190;8.122;2023-12-29T11:05:08;1.33;;;0.82;;
30185;SDS011;31152;49.190;8.122;2023-12-29T11:07:38;2.40;;;1.08;;
30185;SDS011;31152;49.190;8.122;2023-12-29T11:10:07;1.15;;;0.70;;
30185;SDS011;31152;49.190;8.122;2023-12-29T11:12:36;1.35;;;0.63;;
30185;SDS011;31152;49.190;8.122;2023-12-29T11:15:05;0.70;;;0.50;;
30185;SDS011;31152;49.190;8.122;2023-12-29T11:17:33;2.78;;;0.73;;
30185;SDS011;31152;49.190;8.122;2023-12-29T11:20:02;0.93;;;0.77;;
30185;SDS011;31152;49.190;8.122;2023-12-29T11:22:31;1.75;;;0.75;;
30185;SDS011;31152;49.190;8.122;2023-12-29T11:24:58;1.92;;;0.73;;
30185;SDS011;31152;49.190;8.122;2023-12-29T11:27:29;1.55;;;0.90;;
30185;SDS011;31152;49.190;8.122;2023-12-29T11:29:57;1.48;;;1.00;;
30185;SDS011;31152;49.190;8.122;2023-12-29T11:32:29;1.75;;;0.80;;
30185;SDS011;31152;49.190;8.122;2023-12-29T11:35:23;2.13;;;1.13;;
30185;SDS011;31152;49.190;8.122;2023-12-29T11:38:04;3.17;;;1.10;;
30185;SDS011;31152;49.190;8.122;2023-12-29T11:43:36;1.30;;;0.75;;
30185;SDS011;31152;49.190;8.122;2023-12-29T11:46:05;1.20;;;1.05;;
30185;SDS011;31152;49.190;8.122;2023-12-29T11:48:54;2.78;;;1.02;;
30185;SDS011;31152;49.190;8.122;2023-12-29T11:53:57;1.50;;;0.88;;
30185;SDS011;31152;49.190;8.122;2023-12-29T11:56:30;3.63;;;1.20;;
30185;SDS011;31152;49.190;8.122;2023-12-29T11:59:23;1.92;;;0.90;;
30185;SDS011;31152;49.190;8.122;2023-12-29T12:01:52;2.13;;;1.20;;
30185;SDS011;31152;49.190;8.122;2023-12-29T12:12:46;1.27;;;1.17;;
30185;SDS011;31152;49.190;8.122;2023-12-29T12:18:03;2.75;;;1.23;;
30185;SDS011;31152;49.190;8.122;2023-12-29T12:20:34;1.10;;;0.90;;
30185;SDS011;31152;49.190;8.122;2023-12-29T12:23:02;2.17;;;1.23;;
30185;SDS011;31152;49.190;8.122;2023-12-29T12:25:42;2.97;;;1.00;;
30185;SDS011;31152;49.190;8.122;2023-12-29T12:28:13;2.40;;;1.10;;
30185;SDS011;31152;49.190;8.122;2023-12-29T12:30:41;2.60;;;1.20;;
30185;SDS011;31152;49.190;8.122;2023-12-29T12:33:08;2.95;;;1.23;;
30185;SDS011;31152;49.190;8.122;2023-12-29T12:35:39;1.85;;;1.10;;
30185;SDS011;31152;49.190;8.122;2023-12-29T12:38:10;2.50;;;1.13;;
30185;SDS011;31152;49.190;8.122;2023-12-29T12:40:40;2.72;;;1.10;;
30185;SDS011;31152;49.190;8.122;2023-12-29T12:43:07;1.48;;;1.05;;
30185;SDS011;31152;49.190;8.122;2023-12-29T12:45:40;1.52;;;1.00;;
30185;SDS011;31152;49.190;8.122;2023-12-29T12:48:12;5.40;;;1.25;;
30185;SDS011;31152;49.190;8.122;2023-12-29T12:50:45;1.85;;;1.05;;
30185;SDS011;31152;49.190;8.122;2023-12-29T12:53:13;2.45;;;0.90;;
30185;SDS011;31152;49.190;8.122;2023-12-29T12:55:47;5.88;;;1.70;;
30185;SDS011;31152;49.190;8.122;2023-12-29T12:58:17;2.55;;;0.93;;
30185;SDS011;31152;49.190;8.122;2023-12-29T13:00:47;1.50;;;1.15;;
30185;SDS011;31152;49.190;8.122;2023-12-29T13:03:18;1.40;;;0.90;;
30185;SDS011;31152;49.190;8.122;2023-12-29T13:05:49;1.73;;;1.08;;
30185;SDS011;31152;49.190;8.122;2023-12-29T13:08:16;2.30;;;1.00;;
30185;SDS011;31152;49.190;8.122;2023-12-29T13:11:01;2.85;;;1.00;;
30185;SDS011;31152;49.190;8.122;2023-12-29T13:13:35;1.60;;;1.08;;
30185;SDS011;31152;49.190;8.122;2023-12-29T13:16:05;2.28;;;1.00;;
30185;SDS011;31152;49.190;8.122;2023-12-29T13:18:32;2.63;;;1.27;;
30185;SDS011;31152;49.190;8.122;2023-12-29T13:21:01;3.22;;;1.10;;
30185;SDS011;31152;49.190;8.122;2023-12-29T13:23:28;2.75;;;1.20;;
30185;SDS011;31152;49.190;8.122;2023-12-29T13:26:01;1.90;;;1.08;;
30185;SDS011;31152;49.190;8.122;2023-12-29T13:28:33;2.58;;;1.10;;
30185;SDS011;31152;49.190;8.122;2023-12-29T13:31:04;2.30;;;1.02;;
30185;SDS011;31152;49.190;8.122;2023-12-29T13:33:48;1.60;;;1.10;;
30185;SDS011;31152;49.190;8.122;2023-12-29T13:36:34;3.55;;;1.17;;
30185;SDS011;31152;49.190;8.122;2023-12-29T13:39:30;2.92;;;1.30;;
30185;SDS011;31152;49.190;8.122;2023-12-29T13:42:04;3.42;;;1.30;;
30185;SDS011;31152;49.190;8.122;2023-12-29T13:44:32;1.33;;;1.00;;
30185;SDS011;31152;49.190;8.122;2023-12-29T13:47:00;3.40;;;1.20;;
30185;SDS011;31152;49.190;8.122;2023-12-29T13:49:27;3.55;;;1.20;;
30185;SDS011;31152;49.190;8.122;2023-12-29T13:51:54;1.35;;;0.95;;
30185;SDS011;31152;49.190;8.122;2023-12-29T13:54:25;1.15;;;1.05;;
30185;SDS011;31152;49.190;8.122;2023-12-29T13:56:52;5.07;;;1.20;;
30185;SDS011;31152;49.190;8.122;2023-12-29T13:59:32;2.35;;;1.10;;
30185;SDS011;31152;49.190;8.122;2023-12-29T14:02:03;4.15;;;1.58;;
30185;SDS011;31152;49.190;8.122;2023-12-29T14:04:48;3.28;;;1.58;;
30185;SDS011;31152;49.190;8.122;2023-12-29T14:07:15;2.78;;;1.27;;
30185;SDS011;31152;49.190;8.122;2023-12-29T14:09:46;1.42;;;0.90;;
30185;SDS011;31152;49.190;8.122;2023-12-29T14:12:13;3.28;;;1.10;;
30185;SDS011;31152;49.190;8.122;2023-12-29T14:14:49;2.42;;;1.20;;
30185;SDS011;31152;49.190;8.122;2023-12-29T14:17:22;1.80;;;0.90;;
30185;SDS011;31152;49.190;8.122;2023-12-29T14:19:48;3.28;;;1.27;;
30185;SDS011;31152;49.190;8.122;2023-12-29T14:22:21;4.13;;;1.35;;
30185;SDS011;31152;49.190;8.122;2023-12-29T14:25:03;3.05;;;1.00;;
30185;SDS011;31152;49.190;8.122;2023-12-29T14:27:31;1.98;;;1.00;;
30185;SDS011;31152;49.190;8.122;2023-12-29T14:29:58;4.20;;;1.30;;
30185;SDS011;31152;49.190;8.122;2023-12-29T14:32:28;3.53;;;1.13;;
30185;SDS011;31152;49.190;8.122;2023-12-29T14:35:00;3.22;;;1.65;;
30185;SDS011;31152;49.190;8.122;2023-12-29T14:37:29;3.83;;;0.93;;
30185;SDS011;31152;49.190;8.122;2023-12-29T14:39:55;1.92;;;1.10;;
30185;SDS011;31152;49.190;8.122;2023-12-29T14:42:22;3.38;;;1.17;;
30185;SDS011;31152;49.190;8.122;2023-12-29T14:44:49;2.95;;;1.10;;
30185;SDS011;31152;49.190;8.122;2023-12-29T14:47:16;3.22;;;1.42;;
30185;SDS011;31152;49.190;8.122;2023-12-29T14:49:45;4.13;;;1.30;;
30185;SDS011;31152;49.190;8.122;2023-12-29T14:52:12;3.35;;;1.30;;
30185;SDS011;31152;49.190;8.122;2023-12-29T14:54:41;6.63;;;1.30;;
30185;SDS011;31152;49.190;8.122;2023-12-29T14:57:08;3.20;;;1.00;;
30185;SDS011;31152;49.190;8.122;2023-12-29T14:59:43;2.88;;;1.20;;
30185;SDS011;31152;49.190;8.122;2023-12-29T15:02:10;3.25;;;1.20;;
30185;SDS011;31152;49.190;8.122;2023-12-29T15:04:36;3.38;;;1.13;;
30185;SDS011;31152;49.190;8.122;2023-12-29T15:07:03;5.50;;;1.60;;
30185;SDS011;31152;49.190;8.122;2023-12-29T15:09:30;2.45;;;1.30;;
30185;SDS011;31152;49.190;8.122;2023-12-29T15:12:02;1.60;;;0.93;;
30185;SDS011;31152;49.190;8.122;2023-12-29T15:14:33;2.75;;;1.38;;
30185;SDS011;31152;49.190;8.122;2023-12-29T15:19:36;1.52;;;1.15;;
30185;SDS011;31152;49.190;8.122;2023-12-29T15:22:03;2.58;;;1.25;;
30185;SDS011;31152;49.190;8.122;2023-12-29T15:24:30;3.42;;;1.27;;
30185;SDS011;31152;49.190;8.122;2023-12-29T15:26:57;2.10;;;1.15;;